Terminal Aerodrome Forecast
Issued by NWS

Home | Current Version | Previous Version | Text Only | Print | Product List | Glossary On
Versions: 1 2 3 4 5 6 7 8 9 10 11 12 13
000
FTUS46 KPDT 051600 AAA
TAFYKM
TAF AMD
KYKM 051600Z 0516/0612 29013G25KT P6SM SCT100 BKN150
     FM052100 31018G25KT P6SM FEW200
     FM060300 30008KT P6SM SCT200=

USA.gov is the U.S. government's official web portal to all federal, state and local government web resources and services.